Time;durP1;ratioP1;P1;durP2;ratioP2;P2;SDS_P1;SDS_P2;PMS_P1;PMS_P2;Temp;Humidity;BMP_temperature;BMP_pressure;BME280_temperature;BME280_humidity;BME280_pressure;Samples;Min_cycle;Max_cycle;Signal;HPM_P1;HPM_P2
2022/11/04 00:01:38;;;;;;;4.97;3.30;;;;;;;;;;5037016;28;20049;-78
2022/11/04 00:04:04;;;;;;;4.03;2.90;;;;;;;;;;5035747;28;20103;-79
2022/11/04 00:06:30;;;;;;;4.63;2.50;;;;;;;;;;5037125;28;20045;-79
2022/11/04 00:08:57;;;;;;;2.42;2.05;;;;;;;;;;5037067;28;20077;-79
2022/11/04 00:14:08;;;;;;;8.10;2.33;;;;;;;;;;5037041;28;20056;-79
2022/11/04 00:19:19;;;;;;;3.30;1.33;;;;;;;;;;5036943;28;20057;-75
2022/11/04 00:30:01;;;;;;;2.15;0.90;;;;;;;;;;5037014;28;20057;-76
2022/11/04 00:35:13;;;;;;;3.72;1.23;;;;;;;;;;5037292;28;20092;-75
2022/11/04 00:37:39;;;;;;;3.50;1.20;;;;;;;;;;5036858;28;20056;-76
2022/11/04 00:40:06;;;;;;;4.32;1.20;;;;;;;;;;5035270;28;20069;-76
2022/11/04 00:42:33;;;;;;;2.30;1.35;;;;;;;;;;5035149;28;20088;-75
2022/11/04 00:44:59;;;;;;;1.33;0.95;;;;;;;;;;5036733;28;20084;-76
2022/11/04 00:47:25;;;;;;;8.95;2.45;;;;;;;;;;5035215;28;20079;-76
2022/11/04 00:49:51;;;;;;;6.38;1.55;;;;;;;;;;5036109;28;20140;-76
2022/11/04 00:52:17;;;;;;;7.72;1.85;;;;;;;;;;5035107;28;20088;-76
2022/11/04 00:54:43;;;;;;;5.85;1.15;;;;;;;;;;5036161;28;20491;-76
2022/11/04 00:57:10;;;;;;;6.07;1.50;;;;;;;;;;5036109;28;20129;-76
2022/11/04 00:59:36;;;;;;;4.55;1.52;;;;;;;;;;5034891;28;20128;-76
2022/11/04 01:02:02;;;;;;;4.47;1.40;;;;;;;;;;5035927;28;20038;-76
2022/11/04 01:04:28;;;;;;;5.60;1.48;;;;;;;;;;5034730;28;20053;-76
2022/11/04 01:06:54;;;;;;;12.25;1.55;;;;;;;;;;5035865;28;20126;-76
2022/11/04 01:09:20;;;;;;;5.10;1.90;;;;;;;;;;5034889;28;20061;-77
2022/11/04 01:11:47;;;;;;;4.30;1.70;;;;;;;;;;5036283;28;20073;-77
2022/11/04 01:14:14;;;;;;;5.57;1.13;;;;;;;;;;5034322;28;20053;-78
2022/11/04 01:16:41;;;;;;;4.00;1.33;;;;;;;;;;5035878;28;20052;-78
2022/11/04 01:19:07;;;;;;;4.88;1.42;;;;;;;;;;5036257;28;20053;-78
2022/11/04 01:21:33;;;;;;;3.67;1.20;;;;;;;;;;5036755;28;20472;-79
2022/11/04 01:23:59;;;;;;;5.10;1.83;;;;;;;;;;5036016;28;20519;-79
2022/11/04 01:26:26;;;;;;;4.63;1.23;;;;;;;;;;5035934;28;20095;-79
2022/11/04 01:28:53;;;;;;;5.25;1.27;;;;;;;;;;5036193;28;20156;-78
2022/11/04 01:31:20;;;;;;;5.75;1.40;;;;;;;;;;5030780;28;20615;-78
2022/11/04 01:33:47;;;;;;;7.63;1.73;;;;;;;;;;5015463;28;20053;-78
2022/11/04 01:36:13;;;;;;;5.65;1.42;;;;;;;;;;5015662;28;20045;-78
2022/11/04 01:38:39;;;;;;;6.10;1.65;;;;;;;;;;5020062;28;20434;-79
2022/11/04 01:41:06;;;;;;;5.28;1.73;;;;;;;;;;5035404;28;20038;-79
2022/11/04 01:44:02;;;;;;;3.65;1.30;;;;;;;;;;5035957;28;20124;-79
2022/11/04 01:46:36;;;;;;;9.73;1.55;;;;;;;;;;5030209;28;20405;-79
2022/11/04 01:49:23;;;;;;;8.88;2.03;;;;;;;;;;5015805;28;20060;-79
2022/11/04 01:51:50;;;;;;;6.72;1.48;;;;;;;;;;5014834;28;20084;-79
2022/11/04 01:54:16;;;;;;;7.82;1.50;;;;;;;;;;5015651;28;20457;-79
2022/11/04 01:56:43;;;;;;;4.38;1.45;;;;;;;;;;5016236;28;20049;-80
2022/11/04 01:59:13;;;;;;;6.75;1.50;;;;;;;;;;5014952;28;20054;-80
2022/11/04 02:01:39;;;;;;;4.90;1.52;;;;;;;;;;5014976;28;20449;-80
2022/11/04 02:04:24;;;;;;;5.38;1.60;;;;;;;;;;5026213;28;20048;-80
2022/11/04 02:06:51;;;;;;;8.25;1.58;;;;;;;;;;5034300;28;20045;-80
2022/11/04 02:09:18;;;;;;;10.80;2.10;;;;;;;;;;5035249;28;20041;-80
2022/11/04 02:14:29;;;;;;;4.85;1.67;;;;;;;;;;5034289;28;20132;-80
2022/11/04 02:16:57;;;;;;;9.77;1.60;;;;;;;;;;5034380;28;20048;-80
2022/11/04 02:19:23;;;;;;;8.70;2.67;;;;;;;;;;5034695;28;20056;-80
2022/11/04 02:22:09;;;;;;;7.53;1.60;;;;;;;;;;5034544;28;20412;-80
2022/11/04 02:24:46;;;;;;;9.82;2.25;;;;;;;;;;5034608;28;20053;-80
2022/11/04 02:27:18;;;;;;;7.22;1.63;;;;;;;;;;5034653;28;20076;-80
2022/11/04 02:29:48;;;;;;;6.93;1.90;;;;;;;;;;5035399;28;20046;-80
2022/11/04 02:32:26;;;;;;;7.97;1.85;;;;;;;;;;5034495;28;20045;-80
2022/11/04 02:35:03;;;;;;;7.95;1.75;;;;;;;;;;5034556;28;20041;-80
2022/11/04 02:37:48;;;;;;;8.82;1.88;;;;;;;;;;5034811;28;20469;-80
2022/11/04 02:40:26;;;;;;;6.47;1.40;;;;;;;;;;5034448;28;20098;-81
2022/11/04 02:43:11;;;;;;;7.55;2.15;;;;;;;;;;5034215;28;20103;-80
2022/11/04 02:45:47;;;;;;;5.03;1.60;;;;;;;;;;5033366;28;20469;-80
2022/11/04 02:48:20;;;;;;;7.75;1.60;;;;;;;;;;5034562;28;20041;-80
2022/11/04 02:50:56;;;;;;;8.15;2.28;;;;;;;;;;5034246;28;20056;-80
2022/11/04 02:53:36;;;;;;;5.03;1.67;;;;;;;;;;5033857;28;20120;-80
2022/11/04 02:56:03;;;;;;;4.80;1.50;;;;;;;;;;5034298;28;20064;-80
2022/11/04 02:58:38;;;;;;;6.20;1.25;;;;;;;;;;5033650;28;20128;-80
2022/11/04 03:01:05;;;;;;;4.18;1.20;;;;;;;;;;5046220;28;20563;-81
2022/11/04 03:03:35;;;;;;;7.18;1.85;;;;;;;;;;5014071;28;20467;-80
2022/11/04 03:06:02;;;;;;;5.28;1.50;;;;;;;;;;5013746;28;20149;-81
2022/11/04 03:08:31;;;;;;;3.97;1.50;;;;;;;;;;5023843;28;20046;-81
2022/11/04 03:11:03;;;;;;;4.35;1.60;;;;;;;;;;5037997;28;20136;-79
2022/11/04 03:13:33;;;;;;;3.40;1.42;;;;;;;;;;5031492;28;20053;-79
2022/11/04 03:16:01;;;;;;;5.05;1.52;;;;;;;;;;5033733;28;20107;-78
2022/11/04 03:18:41;;;;;;;3.28;1.33;;;;;;;;;;5033482;28;20053;-79
2022/11/04 03:21:09;;;;;;;3.88;1.67;;;;;;;;;;5034009;28;20050;-78
2022/11/04 03:23:35;;;;;;;6.40;1.50;;;;;;;;;;5033530;28;20100;-76
2022/11/04 03:26:11;;;;;;;6.60;1.67;;;;;;;;;;5033430;28;20064;-77
2022/11/04 03:28:46;;;;;;;3.85;1.30;;;;;;;;;;5032860;28;20037;-78
2022/11/04 03:31:16;;;;;;;1.98;1.27;;;;;;;;;;5033745;28;20045;-78
2022/11/04 03:33:48;;;;;;;3.28;1.45;;;;;;;;;;5033410;28;20045;-78
2022/11/04 03:36:14;;;;;;;5.13;1.50;;;;;;;;;;5033367;28;20051;-77
2022/11/04 03:38:40;;;;;;;3.97;1.40;;;;;;;;;;5033715;28;20460;-77
2022/11/04 03:41:22;;;;;;;3.47;1.10;;;;;;;;;;5034009;28;20052;-78
2022/11/04 03:43:48;;;;;;;3.63;1.30;;;;;;;;;;5034031;28;20131;-78
2022/11/04 03:46:14;;;;;;;4.13;1.40;;;;;;;;;;5033727;28;20480;-77
2022/11/04 03:48:41;;;;;;;3.60;1.30;;;;;;;;;;5033301;28;20045;-77
2022/11/04 03:51:08;;;;;;;3.42;1.17;;;;;;;;;;5033906;28;20037;-77
2022/11/04 03:53:34;;;;;;;2.88;1.30;;;;;;;;;;5033601;28;20053;-77
2022/11/04 03:56:29;;;;;;;3.75;1.38;;;;;;;;;;5033097;28;20426;-78
2022/11/04 03:59:19;;;;;;;5.57;1.33;;;;;;;;;;4987224;28;20069;-77
2022/11/04 04:01:59;;;;;;;3.60;1.67;;;;;;;;;;4986421;28;20200;-77
2022/11/04 04:04:27;;;;;;;2.85;1.50;;;;;;;;;;4991609;28;20612;-78
2022/11/04 04:06:57;;;;;;;7.18;1.60;;;;;;;;;;4975494;28;20160;-78
2022/11/04 04:09:26;;;;;;;5.30;1.25;;;;;;;;;;4991753;28;20169;-78
2022/11/04 04:11:55;;;;;;;5.53;1.73;;;;;;;;;;4976061;28;20414;-78
2022/11/04 04:14:43;;;;;;;4.55;1.80;;;;;;;;;;4972119;28;20059;-78
2022/11/04 04:17:09;;;;;;;5.03;1.48;;;;;;;;;;4972277;28;20046;-79
2022/11/04 04:19:35;;;;;;;3.42;1.40;;;;;;;;;;4971927;28;20572;-78
2022/11/04 04:22:04;;;;;;;7.50;2.25;;;;;;;;;;4971766;28;20491;-79
2022/11/04 04:27:32;;;;;;;5.90;1.55;;;;;;;;;;4971825;28;20055;-76
2022/11/04 04:30:18;;;;;;;4.97;1.48;;;;;;;;;;4955739;28;20425;-77
2022/11/04 04:32:46;;;;;;;4.80;1.50;;;;;;;;;;4971836;28;20078;-77
2022/11/04 04:44:58;;;;;;;5.63;1.38;;;;;;;;;;5044984;28;20065;-76
2022/11/04 04:46:23;;;;;;;6.38;1.50;;;;;;;;;;5060035;28;20053;-77
2022/11/04 04:48:49;;;;;;;5.35;1.67;;;;;;;;;;5014025;28;20049;-77
2022/11/04 04:51:15;;;;;;;6.00;1.50;;;;;;;;;;5036074;28;20457;-77
2022/11/04 04:53:41;;;;;;;5.70;1.30;;;;;;;;;;5036331;28;20049;-76
2022/11/04 04:56:07;;;;;;;5.38;1.40;;;;;;;;;;5036009;28;20451;-76
2022/11/04 04:58:33;;;;;;;5.78;1.80;;;;;;;;;;5036108;28;20475;-77
2022/11/04 05:00:59;;;;;;;6.78;1.60;;;;;;;;;;5036306;28;20049;-76
2022/11/04 05:03:25;;;;;;;3.67;1.38;;;;;;;;;;5036225;28;20047;-77
2022/11/04 05:05:51;;;;;;;3.45;1.55;;;;;;;;;;5035834;28;20041;-77
2022/11/04 05:08:17;;;;;;;4.60;1.60;;;;;;;;;;5036381;28;20124;-77
2022/11/04 05:10:43;;;;;;;3.70;1.33;;;;;;;;;;5036028;28;20049;-78
2022/11/04 05:13:28;;;;;;;7.40;1.60;;;;;;;;;;5035765;28;20489;-78
2022/11/04 05:15:55;;;;;;;6.22;1.50;;;;;;;;;;5035969;28;20055;-78
2022/11/04 05:18:21;;;;;;;6.63;1.60;;;;;;;;;;5035428;28;20087;-79
2022/11/04 05:20:47;;;;;;;3.50;1.60;;;;;;;;;;5035791;28;20045;-79
2022/11/04 05:23:13;;;;;;;7.60;1.52;;;;;;;;;;5035803;28;20045;-79
2022/11/04 05:25:40;;;;;;;6.75;2.15;;;;;;;;;;5035680;28;20052;-79
2022/11/04 05:28:06;;;;;;;5.47;1.50;;;;;;;;;;5034218;28;20052;-79
2022/11/04 05:30:33;;;;;;;7.32;1.77;;;;;;;;;;5036148;28;20135;-80
2022/11/04 05:32:59;;;;;;;6.03;1.58;;;;;;;;;;5035854;28;20103;-78
2022/11/04 05:35:25;;;;;;;6.40;1.85;;;;;;;;;;5035826;28;20045;-77
2022/11/04 05:37:51;;;;;;;5.72;2.08;;;;;;;;;;5035571;28;20446;-78
2022/11/04 05:40:17;;;;;;;7.25;2.10;;;;;;;;;;5035601;28;20048;-78
2022/11/04 05:42:43;;;;;;;8.50;1.92;;;;;;;;;;5035634;28;20132;-76
2022/11/04 05:45:09;;;;;;;4.75;1.80;;;;;;;;;;5035257;28;20073;-77
2022/11/04 05:47:35;;;;;;;4.65;1.60;;;;;;;;;;5035871;28;20075;-76
2022/11/04 05:50:01;;;;;;;7.57;1.95;;;;;;;;;;5035434;28;20038;-77
2022/11/04 05:52:27;;;;;;;4.82;1.60;;;;;;;;;;5034832;28;20053;-76
2022/11/04 05:54:53;;;;;;;4.85;2.22;;;;;;;;;;5035213;28;20432;-77
2022/11/04 05:57:19;;;;;;;4.00;1.38;;;;;;;;;;5035154;28;20053;-77
2022/11/04 05:59:45;;;;;;;2.97;1.63;;;;;;;;;;5035380;28;20498;-78
2022/11/04 06:02:11;;;;;;;5.38;1.80;;;;;;;;;;5035001;28;20042;-78
2022/11/04 06:04:37;;;;;;;3.88;1.38;;;;;;;;;;5034551;28;20400;-78
2022/11/04 06:07:03;;;;;;;5.00;1.80;;;;;;;;;;5034973;28;20041;-79
2022/11/04 06:09:38;;;;;;;5.18;1.65;;;;;;;;;;5034818;28;20049;-79
2022/11/04 06:12:09;;;;;;;6.70;1.60;;;;;;;;;;5033722;28;20049;-79
2022/11/04 06:14:35;;;;;;;4.45;1.52;;;;;;;;;;5033797;28;20065;-79
2022/11/04 06:17:01;;;;;;;7.32;2.38;;;;;;;;;;5034748;28;20081;-79
2022/11/04 06:19:27;;;;;;;6.80;1.77;;;;;;;;;;5033479;28;20049;-79
2022/11/04 06:21:53;;;;;;;5.65;1.63;;;;;;;;;;5035093;28;20053;-79
2022/11/04 06:24:20;;;;;;;5.60;1.80;;;;;;;;;;5036376;28;20049;-79
2022/11/04 06:26:46;;;;;;;4.30;1.70;;;;;;;;;;5036335;28;20400;-80
2022/11/04 06:29:12;;;;;;;2.72;1.55;;;;;;;;;;5034841;28;20457;-80
2022/11/04 06:31:38;;;;;;;5.45;1.50;;;;;;;;;;5034312;28;20030;-80
2022/11/04 06:34:04;;;;;;;3.47;1.45;;;;;;;;;;5034368;28;20092;-80
2022/11/04 06:36:30;;;;;;;5.65;1.60;;;;;;;;;;5034271;28;20076;-80
2022/11/04 06:38:56;;;;;;;3.88;1.83;;;;;;;;;;5034330;28;20069;-80
2022/11/04 06:41:22;;;;;;;3.08;1.70;;;;;;;;;;5033997;28;20077;-80
2022/11/04 06:43:48;;;;;;;4.20;1.77;;;;;;;;;;5034757;28;20045;-80
2022/11/04 06:46:24;;;;;;;3.92;1.90;;;;;;;;;;5034118;28;20133;-80
2022/11/04 06:48:50;;;;;;;4.40;1.70;;;;;;;;;;5034116;28;20045;-80
2022/11/04 06:51:17;;;;;;;5.47;1.73;;;;;;;;;;5034119;28;20071;-80
2022/11/04 06:53:43;;;;;;;3.83;1.58;;;;;;;;;;5034113;28;20076;-80
2022/11/04 06:56:09;;;;;;;1.80;1.60;;;;;;;;;;5032812;28;20099;-80
2022/11/04 06:58:35;;;;;;;3.90;1.60;;;;;;;;;;5034645;28;20515;-76
2022/11/04 07:01:01;;;;;;;3.60;1.75;;;;;;;;;;5033538;28;20041;-79
2022/11/04 07:03:27;;;;;;;5.85;1.60;;;;;;;;;;5033437;28;20089;-78
2022/11/04 07:05:53;;;;;;;5.57;1.58;;;;;;;;;;5034129;28;20081;-80
2022/11/04 07:08:19;;;;;;;4.55;1.88;;;;;;;;;;5033806;28;20057;-78
2022/11/04 07:10:45;;;;;;;6.72;1.77;;;;;;;;;;5033747;28;20091;-81
2022/11/04 07:13:11;;;;;;;5.10;1.65;;;;;;;;;;5033587;28;20508;-82
2022/11/04 07:15:39;;;;;;;5.90;2.47;;;;;;;;;;5032529;28;20057;-82
2022/11/04 07:18:05;;;;;;;2.85;1.80;;;;;;;;;;5033830;28;20049;-81
2022/11/04 07:20:32;;;;;;;4.57;1.60;;;;;;;;;;5033843;28;20477;-81
2022/11/04 07:22:58;;;;;;;6.05;1.73;;;;;;;;;;5033260;28;20431;-81
2022/11/04 07:25:24;;;;;;;7.60;3.15;;;;;;;;;;5033272;28;20478;-81
2022/11/04 07:27:50;;;;;;;7.95;2.78;;;;;;;;;;5033622;28;20397;-82
2022/11/04 07:30:19;;;;;;;6.30;2.50;;;;;;;;;;5033631;28;20049;-82
2022/11/04 07:32:45;;;;;;;6.65;2.17;;;;;;;;;;5033353;28;20045;-81
2022/11/04 07:35:11;;;;;;;5.97;2.50;;;;;;;;;;5033282;28;20485;-82
2022/11/04 07:37:37;;;;;;;8.25;2.78;;;;;;;;;;5033625;28;20041;-81
2022/11/04 07:40:04;;;;;;;4.65;2.70;;;;;;;;;;5033895;28;20046;-81
2022/11/04 07:42:30;;;;;;;7.95;2.42;;;;;;;;;;5034605;28;20041;-80
2022/11/04 07:44:56;;;;;;;6.05;1.90;;;;;;;;;;5032710;28;20143;-82
2022/11/04 07:47:22;;;;;;;7.68;2.38;;;;;;;;;;5033266;28;20053;-81
2022/11/04 07:49:48;;;;;;;5.70;1.92;;;;;;;;;;5033570;28;20564;-81
2022/11/04 07:52:14;;;;;;;6.25;1.80;;;;;;;;;;5032881;28;20566;-81
2022/11/04 07:54:40;;;;;;;6.18;1.85;;;;;;;;;;5033756;28;20052;-81
2022/11/04 07:57:07;;;;;;;6.53;1.80;;;;;;;;;;5033376;28;20041;-81
2022/11/04 07:59:33;;;;;;;9.07;2.20;;;;;;;;;;5033086;28;20512;-81
2022/11/04 08:01:59;;;;;;;4.28;1.77;;;;;;;;;;5033391;28;20058;-81
2022/11/04 08:04:25;;;;;;;4.53;1.80;;;;;;;;;;5032329;28;20562;-81
2022/11/04 08:06:51;;;;;;;7.05;2.83;;;;;;;;;;5032229;28;20058;-81
2022/11/04 08:09:17;;;;;;;6.90;2.13;;;;;;;;;;5032938;28;20054;-81
2022/11/04 08:11:43;;;;;;;5.20;1.73;;;;;;;;;;5033004;28;20077;-80
2022/11/04 08:14:09;;;;;;;3.88;1.80;;;;;;;;;;5033188;28;20127;-81
2022/11/04 08:16:35;;;;;;;2.70;1.75;;;;;;;;;;5037536;28;20192;-80
2022/11/04 08:19:01;;;;;;;7.00;1.98;;;;;;;;;;5037442;28;20502;-80
2022/11/04 08:21:28;;;;;;;3.60;1.70;;;;;;;;;;5037650;28;20045;-82
2022/11/04 08:23:55;;;;;;;5.47;1.80;;;;;;;;;;5037938;28;20058;-82
2022/11/04 08:26:24;;;;;;;2.15;1.58;;;;;;;;;;5036876;28;20045;-79
2022/11/04 08:28:51;;;;;;;5.93;1.70;;;;;;;;;;5037608;28;20485;-80
2022/11/04 08:31:18;;;;;;;5.20;2.08;;;;;;;;;;5036665;28;20096;-80
2022/11/04 08:33:45;;;;;;;5.68;2.47;;;;;;;;;;5036734;28;20049;-80
2022/11/04 08:36:14;;;;;;;4.03;2.00;;;;;;;;;;5036755;28;20081;-80
2022/11/04 08:38:40;;;;;;;6.07;2.70;;;;;;;;;;5035159;28;20055;-79
2022/11/04 08:41:07;;;;;;;2.83;1.95;;;;;;;;;;5036531;28;20058;-79
2022/11/04 08:43:34;;;;;;;6.90;2.13;;;;;;;;;;5036037;28;20037;-81
2022/11/04 08:46:00;;;;;;;6.10;2.72;;;;;;;;;;5036876;28;20125;-80
2022/11/04 08:48:27;;;;;;;4.38;2.00;;;;;;;;;;5035910;28;20049;-79
2022/11/04 08:50:54;;;;;;;7.55;2.30;;;;;;;;;;5037197;28;20491;-79
2022/11/04 08:53:20;;;;;;;4.97;2.00;;;;;;;;;;5036396;28;20124;-80
2022/11/04 08:55:47;;;;;;;5.80;2.20;;;;;;;;;;5036296;28;20046;-80
2022/11/04 08:58:13;;;;;;;6.00;2.22;;;;;;;;;;5036265;28;20041;-80
2022/11/04 09:00:39;;;;;;;4.88;2.05;;;;;;;;;;5036320;28;20064;-81
2022/11/04 09:03:05;;;;;;;4.90;2.47;;;;;;;;;;5035855;28;20142;-80
2022/11/04 09:05:32;;;;;;;5.53;1.92;;;;;;;;;;5034940;28;20404;-80
2022/11/04 09:08:00;;;;;;;5.63;2.30;;;;;;;;;;5036158;28;20081;-80
2022/11/04 09:10:26;;;;;;;3.08;1.92;;;;;;;;;;5037686;28;20112;-81
2022/11/04 09:12:52;;;;;;;6.03;2.28;;;;;;;;;;5036962;28;20053;-79
2022/11/04 09:15:18;;;;;;;6.22;2.20;;;;;;;;;;5036070;28;20052;-81
2022/11/04 09:17:44;;;;;;;6.35;2.83;;;;;;;;;;5036416;28;20038;-80
2022/11/04 09:20:11;;;;;;;6.13;2.70;;;;;;;;;;5035957;28;20096;-81
2022/11/04 09:22:37;;;;;;;4.95;2.55;;;;;;;;;;5034709;28;20051;-81
2022/11/04 09:25:03;;;;;;;8.02;2.47;;;;;;;;;;5035511;28;20481;-81
2022/11/04 09:27:29;;;;;;;5.85;2.22;;;;;;;;;;5034432;28;20037;-80
2022/11/04 09:29:55;;;;;;;5.22;2.20;;;;;;;;;;5035754;28;20084;-81
2022/11/04 09:32:21;;;;;;;5.85;2.15;;;;;;;;;;5035821;28;20485;-81
2022/11/04 09:34:47;;;;;;;5.05;2.17;;;;;;;;;;5035708;28;20045;-81
2022/11/04 09:37:14;;;;;;;6.70;2.40;;;;;;;;;;5035989;28;20522;-81
2022/11/04 09:39:40;;;;;;;5.95;2.50;;;;;;;;;;5035934;28;20557;-81
2022/11/04 09:42:08;;;;;;;4.47;2.00;;;;;;;;;;5036402;28;20120;-81
2022/11/04 09:44:43;;;;;;;7.05;2.38;;;;;;;;;;5036879;28;20099;-81
2022/11/04 09:47:12;;;;;;;7.78;1.90;;;;;;;;;;5034646;28;20068;-81
2022/11/04 09:49:40;;;;;;;6.07;1.90;;;;;;;;;;5035742;28;20049;-80
2022/11/04 09:52:12;;;;;;;5.72;1.80;;;;;;;;;;5035345;28;20095;-80
2022/11/04 09:54:44;;;;;;;7.00;1.90;;;;;;;;;;5035383;28;20046;-80
2022/11/04 09:57:15;;;;;;;6.72;1.90;;;;;;;;;;5018366;28;20042;-80
2022/11/04 09:59:41;;;;;;;6.20;2.00;;;;;;;;;;5015466;28;20042;-80
2022/11/04 10:02:10;;;;;;;8.95;1.92;;;;;;;;;;5015193;28;20139;-80
2022/11/04 10:04:39;;;;;;;8.25;2.72;;;;;;;;;;5047226;28;20050;-80
2022/11/04 10:07:18;;;;;;;7.68;2.10;;;;;;;;;;5047155;28;20109;-80
2022/11/04 10:09:50;;;;;;;8.02;2.20;;;;;;;;;;5015640;28;20147;-82
2022/11/04 10:12:32;;;;;;;6.70;2.42;;;;;;;;;;5016041;28;20096;-85
2022/11/04 10:15:17;;;;;;;7.88;2.58;;;;;;;;;;5015835;28;20081;-82
2022/11/04 10:18:01;;;;;;;7.05;1.98;;;;;;;;;;5046781;28;20456;-82
2022/11/04 10:20:46;;;;;;;6.40;1.73;;;;;;;;;;5015102;28;20168;-82
2022/11/04 10:23:12;;;;;;;5.75;2.03;;;;;;;;;;5014636;28;20150;-83
2022/11/04 10:25:46;;;;;;;6.13;2.05;;;;;;;;;;5046670;28;20472;-82
2022/11/04 10:28:16;;;;;;;4.70;2.00;;;;;;;;;;5046938;28;20061;-82
2022/11/04 10:30:44;;;;;;;10.23;2.58;;;;;;;;;;5046634;28;20058;-82
2022/11/04 10:33:28;;;;;;;7.03;2.20;;;;;;;;;;5030978;28;20449;-83
2022/11/04 10:35:58;;;;;;;4.35;2.00;;;;;;;;;;5034703;28;20049;-83
2022/11/04 10:38:43;;;;;;;5.95;2.20;;;;;;;;;;5032290;28;20412;-82
2022/11/04 10:41:33;;;;;;;6.80;1.80;;;;;;;;;;5034682;28;20045;-82
2022/11/04 10:44:14;;;;;;;7.40;2.45;;;;;;;;;;5027600;28;20049;-81
2022/11/04 10:46:59;;;;;;;6.95;2.60;;;;;;;;;;5033047;28;20404;-79
2022/11/04 10:49:44;;;;;;;5.03;2.10;;;;;;;;;;5034298;28;20049;-79
2022/11/04 10:52:10;;;;;;;10.00;2.78;;;;;;;;;;5034113;28;20370;-78
2022/11/04 10:54:39;;;;;;;7.85;2.40;;;;;;;;;;5034000;28;20124;-79
2022/11/04 10:57:05;;;;;;;9.18;2.78;;;;;;;;;;5034754;28;20124;-78
2022/11/04 10:59:46;;;;;;;5.88;2.67;;;;;;;;;;5040267;28;20484;-77
2022/11/04 11:02:13;;;;;;;7.65;3.83;;;;;;;;;;5050077;28;20033;-77
2022/11/04 11:04:40;;;;;;;6.88;2.47;;;;;;;;;;5040033;28;20570;-79
2022/11/04 11:07:07;;;;;;;7.97;2.88;;;;;;;;;;5032962;28;20075;-80
2022/11/04 11:10:03;;;;;;;5.00;2.75;;;;;;;;;;5018802;28;20053;-81
2022/11/04 11:12:35;;;;;;;8.55;2.83;;;;;;;;;;5005504;28;20145;-82
2022/11/04 11:15:16;;;;;;;4.38;2.20;;;;;;;;;;5014008;28;20124;-82
2022/11/04 11:17:43;;;;;;;7.22;2.65;;;;;;;;;;5026531;28;20057;-83
2022/11/04 11:20:23;;;;;;;5.60;2.00;;;;;;;;;;5016268;28;20096;-84
2022/11/04 11:22:53;;;;;;;6.65;2.00;;;;;;;;;;5033372;28;20120;-85
2022/11/04 11:25:37;;;;;;;6.18;2.17;;;;;;;;;;5015947;28;20428;-85
2022/11/04 11:28:08;;;;;;;7.47;2.20;;;;;;;;;;5033584;28;20049;-84
2022/11/04 11:30:41;;;;;;;6.32;2.10;;;;;;;;;;5035951;28;20041;-82
2022/11/04 11:33:26;;;;;;;6.00;2.17;;;;;;;;;;5016026;28;20054;-81
2022/11/04 11:35:54;;;;;;;8.02;2.20;;;;;;;;;;5013798;28;20098;-84
2022/11/04 11:38:27;;;;;;;7.90;2.22;;;;;;;;;;5014536;28;20469;-85
2022/11/04 11:41:04;;;;;;;7.45;2.50;;;;;;;;;;5014477;28;20041;-84
2022/11/04 11:43:32;;;;;;;7.78;2.28;;;;;;;;;;5012174;28;20045;-84
2022/11/04 11:45:59;;;;;;;8.13;2.53;;;;;;;;;;5017238;28;20041;-84
2022/11/04 11:48:28;;;;;;;6.45;2.30;;;;;;;;;;5033374;28;20041;-84
2022/11/04 11:50:57;;;;;;;6.57;2.42;;;;;;;;;;5030954;28;20095;-84
2022/11/04 11:53:24;;;;;;;4.47;2.20;;;;;;;;;;5032982;28;20050;-84
2022/11/04 11:56:01;;;;;;;6.43;2.15;;;;;;;;;;5033239;28;20057;-84
2022/11/04 11:58:34;;;;;;;6.40;2.00;;;;;;;;;;5032258;28;20052;-84
2022/11/04 12:01:05;;;;;;;7.57;2.35;;;;;;;;;;5032534;28;20050;-84
2022/11/04 12:03:35;;;;;;;3.55;1.90;;;;;;;;;;5033084;28;20081;-84
2022/11/04 12:06:22;;;;;;;5.47;2.13;;;;;;;;;;5031909;28;20068;-85
2022/11/04 12:08:48;;;;;;;6.93;2.20;;;;;;;;;;5032768;28;20496;-84
2022/11/04 12:11:18;;;;;;;5.18;1.90;;;;;;;;;;5033005;28;20120;-84
2022/11/04 12:13:53;;;;;;;8.50;2.53;;;;;;;;;;5032978;28;20504;-84
2022/11/04 12:16:20;;;;;;;6.20;2.20;;;;;;;;;;5033126;28;20125;-84
2022/11/04 12:18:48;;;;;;;4.72;2.03;;;;;;;;;;5012805;28;20120;-84
2022/11/04 12:21:20;;;;;;;6.40;2.17;;;;;;;;;;5031040;28;20048;-84
2022/11/04 12:23:55;;;;;;;9.43;2.72;;;;;;;;;;5032904;28;20522;-84
2022/11/04 12:26:29;;;;;;;6.65;2.60;;;;;;;;;;5033437;28;20046;-84
2022/11/04 12:29:14;;;;;;;9.65;2.58;;;;;;;;;;5032100;28;20049;-84
2022/11/04 12:31:55;;;;;;;6.95;2.22;;;;;;;;;;5033142;28;20046;-84
2022/11/04 12:34:21;;;;;;;6.88;2.42;;;;;;;;;;5031360;28;20480;-85
2022/11/04 12:37:03;;;;;;;6.50;2.20;;;;;;;;;;5032324;28;20095;-86
2022/11/04 12:39:41;;;;;;;6.18;2.65;;;;;;;;;;5033233;28;20060;-83
2022/11/04 12:42:20;;;;;;;8.00;2.13;;;;;;;;;;5033343;28;20049;-83
2022/11/04 12:44:52;;;;;;;7.47;2.03;;;;;;;;;;5029634;28;20489;-84
2022/11/04 12:47:26;;;;;;;7.80;2.28;;;;;;;;;;5014108;28;20046;-83
2022/11/04 12:49:52;;;;;;;7.75;2.55;;;;;;;;;;5014242;28;20089;-84
2022/11/04 12:52:30;;;;;;;7.88;2.30;;;;;;;;;;5013856;28;20046;-84
2022/11/04 12:55:03;;;;;;;5.50;2.13;;;;;;;;;;5013291;28;20370;-84
2022/11/04 12:57:41;;;;;;;7.32;2.00;;;;;;;;;;5018190;28;20121;-84
2022/11/04 13:00:07;;;;;;;5.50;2.00;;;;;;;;;;5032970;28;20121;-83
2022/11/04 13:02:40;;;;;;;13.48;2.67;;;;;;;;;;5035193;28;20077;-81
2022/11/04 13:05:11;;;;;;;7.43;2.97;;;;;;;;;;5040855;28;20076;-84
2022/11/04 13:08:00;;;;;;;6.20;2.00;;;;;;;;;;5044284;28;20041;-84
2022/11/04 13:10:31;;;;;;;8.48;2.05;;;;;;;;;;5038181;28;20128;-84
2022/11/04 13:13:00;;;;;;;6.38;1.80;;;;;;;;;;5035854;28;20500;-83
2022/11/04 13:15:28;;;;;;;5.28;1.92;;;;;;;;;;5034645;28;20092;-83
2022/11/04 13:17:58;;;;;;;9.07;2.28;;;;;;;;;;5035880;28;20046;-84
2022/11/04 13:20:27;;;;;;;7.55;1.98;;;;;;;;;;5036014;28;20130;-83
2022/11/04 13:22:54;;;;;;;8.00;2.38;;;;;;;;;;5035778;28;20377;-83
2022/11/04 13:25:25;;;;;;;6.13;2.10;;;;;;;;;;5035703;28;20048;-83
2022/11/04 13:27:51;;;;;;;5.90;1.85;;;;;;;;;;5034567;28;20041;-83
2022/11/04 13:30:17;;;;;;;9.85;2.20;;;;;;;;;;5035760;28;20045;-83
2022/11/04 13:32:55;;;;;;;7.10;2.00;;;;;;;;;;5035637;28;20041;-83
2022/11/04 13:35:39;;;;;;;6.65;1.77;;;;;;;;;;5035580;28;20136;-83
2022/11/04 13:38:11;;;;;;;7.90;1.80;;;;;;;;;;5035478;28;20056;-83
2022/11/04 13:40:43;;;;;;;6.18;2.05;;;;;;;;;;5036009;28;20135;-83
2022/11/04 13:43:36;;;;;;;6.18;1.80;;;;;;;;;;5035406;28;20037;-83
2022/11/04 13:46:03;;;;;;;7.25;1.85;;;;;;;;;;5033103;28;20042;-84
2022/11/04 13:48:31;;;;;;;10.23;2.22;;;;;;;;;;5035131;28;20511;-84
2022/11/04 13:51:08;;;;;;;10.35;2.30;;;;;;;;;;5035428;28;20067;-82
2022/11/04 13:53:43;;;;;;;7.70;2.45;;;;;;;;;;5035549;28;20046;-78
2022/11/04 13:56:12;;;;;;;9.15;2.15;;;;;;;;;;5034951;28;20044;-78
2022/11/04 13:58:38;;;;;;;7.38;2.00;;;;;;;;;;5034956;28;20041;-79
2022/11/04 14:01:26;;;;;;;7.45;1.90;;;;;;;;;;5050545;28;20045;-79
2022/11/04 14:04:01;;;;;;;8.75;2.25;;;;;;;;;;5034982;28;20125;-79
2022/11/04 14:06:46;;;;;;;10.93;2.50;;;;;;;;;;5034866;28;20092;-79
2022/11/04 14:09:32;;;;;;;5.88;2.03;;;;;;;;;;5035108;28;20057;-79
2022/11/04 14:12:15;;;;;;;6.05;2.33;;;;;;;;;;5033385;28;20054;-79
2022/11/04 14:14:52;;;;;;;5.32;1.80;;;;;;;;;;5032297;28;20419;-79
2022/11/04 14:17:44;;;;;;;7.30;2.42;;;;;;;;;;5035089;28;20045;-78
2022/11/04 14:20:23;;;;;;;5.60;2.00;;;;;;;;;;5018995;28;20057;-78
2022/11/04 14:22:53;;;;;;;7.03;2.10;;;;;;;;;;5034491;28;20037;-78
2022/11/04 14:25:21;;;;;;;8.40;2.45;;;;;;;;;;5032939;28;20152;-78
2022/11/04 14:27:48;;;;;;;7.43;1.70;;;;;;;;;;5034729;28;20064;-79
2022/11/04 14:30:33;;;;;;;9.48;2.42;;;;;;;;;;5034364;28;20038;-78
2022/11/04 14:33:01;;;;;;;6.03;3.05;;;;;;;;;;5015058;28;20099;-78
2022/11/04 14:35:28;;;;;;;10.10;3.28;;;;;;;;;;5014575;28;20038;-78
2022/11/04 14:37:54;;;;;;;5.13;2.00;;;;;;;;;;5014929;28;20425;-78
2022/11/04 14:40:25;;;;;;;7.57;2.50;;;;;;;;;;5023128;28;20041;-78
2022/11/04 14:42:54;;;;;;;6.63;2.10;;;;;;;;;;5027664;28;20049;-78
2022/11/04 14:45:23;;;;;;;7.82;2.30;;;;;;;;;;5034176;28;20053;-78
2022/11/04 14:47:54;;;;;;;7.75;2.38;;;;;;;;;;5034107;28;20056;-78
2022/11/04 14:50:25;;;;;;;10.98;2.30;;;;;;;;;;5033879;28;20505;-78
2022/11/04 14:52:54;;;;;;;9.68;2.13;;;;;;;;;;5032587;28;20059;-79
2022/11/04 14:55:22;;;;;;;9.35;2.08;;;;;;;;;;5034725;28;20051;-78
2022/11/04 14:57:49;;;;;;;12.95;2.50;;;;;;;;;;5018261;28;20100;-78
2022/11/04 15:00:22;;;;;;;9.73;2.70;;;;;;;;;;5035343;28;20046;-77
2022/11/04 15:02:48;;;;;;;10.70;3.03;;;;;;;;;;5034117;28;20042;-77
2022/11/04 15:05:26;;;;;;;7.53;2.17;;;;;;;;;;5033688;28;20045;-77
2022/11/04 15:07:52;;;;;;;12.40;2.25;;;;;;;;;;5034229;28;20037;-77
2022/11/04 15:10:23;;;;;;;8.10;2.10;;;;;;;;;;5033866;28;20128;-77
2022/11/04 15:12:51;;;;;;;10.30;2.90;;;;;;;;;;5033554;28;20049;-77
2022/11/04 15:15:29;;;;;;;7.35;2.60;;;;;;;;;;5034766;28;20045;-80
2022/11/04 15:18:06;;;;;;;5.75;2.40;;;;;;;;;;5034094;28;20052;-77
2022/11/04 15:20:33;;;;;;;7.13;2.47;;;;;;;;;;5033908;28;20045;-81
2022/11/04 15:23:00;;;;;;;7.95;2.25;;;;;;;;;;5033490;28;20053;-77
2022/11/04 15:25:27;;;;;;;10.43;2.22;;;;;;;;;;5033466;28;20042;-77
2022/11/04 15:27:53;;;;;;;10.48;2.78;;;;;;;;;;5033344;28;20473;-77
2022/11/04 15:30:28;;;;;;;7.78;1.95;;;;;;;;;;5033160;28;20543;-81
2022/11/04 15:33:01;;;;;;;7.35;2.30;;;;;;;;;;5035326;28;20128;-84